Terminal Aerodrome Forecast
Issued by NWS

Home | Current Version | Previous Version | Text Only | Print | Product List | Glossary On
Versions: 1 2 3 4 5 6 7 8 9 10 11 12 13
000
FTUS43 KEAX 151123
TAFSTJ
TAF
KSTJ 151123Z 1512/1612 21007KT P6SM BKN120 WS020/24035KT
     FM151400 22009KT P6SM BKN180
     FM151700 33011KT P6SM BKN200
     FM160200 35015G25KT P6SM SCT025 BKN035=

USA.gov is the U.S. government's official web portal to all federal, state and local government web resources and services.